sensor_id;sensor_type;location;lat;lon;timestamp;P1;durP1;ratioP1;P2;durP2;ratioP2
17488;SDS011;8861;52.644;4.734;2023-02-01T00:01:20;33.30;;;5.60;;
17488;SDS011;8861;52.644;4.734;2023-02-01T00:03:47;31.30;;;5.80;;
17488;SDS011;8861;52.644;4.734;2023-02-01T00:06:13;33.17;;;5.67;;
17488;SDS011;8861;52.644;4.734;2023-02-01T00:08:40;33.60;;;6.10;;
17488;SDS011;8861;52.644;4.734;2023-02-01T00:11:08;26.97;;;5.27;;
17488;SDS011;8861;52.644;4.734;2023-02-01T00:13:37;27.13;;;4.97;;
17488;SDS011;8861;52.644;4.734;2023-02-01T00:16:07;30.53;;;5.20;;
17488;SDS011;8861;52.644;4.734;2023-02-01T00:18:37;35.47;;;5.53;;
17488;SDS011;8861;52.644;4.734;2023-02-01T00:21:04;26.40;;;5.20;;
17488;SDS011;8861;52.644;4.734;2023-02-01T00:23:31;25.93;;;4.83;;
17488;SDS011;8861;52.644;4.734;2023-02-01T00:25:59;28.87;;;5.30;;
17488;SDS011;8861;52.644;4.734;2023-02-01T00:28:27;31.30;;;5.13;;
17488;SDS011;8861;52.644;4.734;2023-02-01T00:30:55;33.17;;;5.17;;
17488;SDS011;8861;52.644;4.734;2023-02-01T00:33:24;37.83;;;6.17;;
17488;SDS011;8861;52.644;4.734;2023-02-01T00:35:51;29.23;;;5.90;;
17488;SDS011;8861;52.644;4.734;2023-02-01T00:38:23;40.10;;;6.00;;
17488;SDS011;8861;52.644;4.734;2023-02-01T00:40:50;27.07;;;5.00;;
17488;SDS011;8861;52.644;4.734;2023-02-01T00:43:17;32.37;;;5.63;;
17488;SDS011;8861;52.644;4.734;2023-02-01T00:45:44;29.67;;;5.03;;
17488;SDS011;8861;52.644;4.734;2023-02-01T00:48:11;29.50;;;5.33;;
17488;SDS011;8861;52.644;4.734;2023-02-01T00:50:42;27.40;;;4.77;;
17488;SDS011;8861;52.644;4.734;2023-02-01T00:53:09;24.77;;;5.40;;
17488;SDS011;8861;52.644;4.734;2023-02-01T00:55:36;31.93;;;5.70;;
17488;SDS011;8861;52.644;4.734;2023-02-01T00:58:03;30.43;;;5.33;;
17488;SDS011;8861;52.644;4.734;2023-02-01T01:00:31;26.63;;;5.60;;
17488;SDS011;8861;52.644;4.734;2023-02-01T01:02:58;32.77;;;5.57;;
17488;SDS011;8861;52.644;4.734;2023-02-01T01:05:24;28.50;;;5.67;;
17488;SDS011;8861;52.644;4.734;2023-02-01T01:07:54;32.77;;;5.60;;
17488;SDS011;8861;52.644;4.734;2023-02-01T01:10:20;25.07;;;5.30;;
17488;SDS011;8861;52.644;4.734;2023-02-01T01:12:47;25.83;;;5.40;;
17488;SDS011;8861;52.644;4.734;2023-02-01T01:15:15;27.53;;;5.27;;
17488;SDS011;8861;52.644;4.734;2023-02-01T01:17:42;32.43;;;5.43;;
17488;SDS011;8861;52.644;4.734;2023-02-01T01:20:10;37.40;;;6.10;;
17488;SDS011;8861;52.644;4.734;2023-02-01T01:22:38;29.17;;;5.50;;
17488;SDS011;8861;52.644;4.734;2023-02-01T01:25:07;27.43;;;5.03;;
17488;SDS011;8861;52.644;4.734;2023-02-01T01:27:34;23.70;;;5.10;;
17488;SDS011;8861;52.644;4.734;2023-02-01T01:30:01;25.20;;;5.20;;
17488;SDS011;8861;52.644;4.734;2023-02-01T01:32:28;31.97;;;5.90;;
17488;SDS011;8861;52.644;4.734;2023-02-01T01:34:55;31.17;;;5.90;;
17488;SDS011;8861;52.644;4.734;2023-02-01T01:37:22;31.37;;;5.87;;
17488;SDS011;8861;52.644;4.734;2023-02-01T01:39:48;31.13;;;5.83;;
17488;SDS011;8861;52.644;4.734;2023-02-01T01:42:17;35.60;;;6.73;;
17488;SDS011;8861;52.644;4.734;2023-02-01T01:47:44;30.00;;;5.30;;
17488;SDS011;8861;52.644;4.734;2023-02-01T01:50:16;35.07;;;5.93;;
17488;SDS011;8861;52.644;4.734;2023-02-01T01:52:46;32.50;;;5.57;;
17488;SDS011;8861;52.644;4.734;2023-02-01T01:55:18;31.63;;;6.03;;
17488;SDS011;8861;52.644;4.734;2023-02-01T01:57:48;33.37;;;6.17;;
17488;SDS011;8861;52.644;4.734;2023-02-01T02:00:20;32.50;;;5.67;;
17488;SDS011;8861;52.644;4.734;2023-02-01T02:02:48;34.10;;;5.77;;
17488;SDS011;8861;52.644;4.734;2023-02-01T02:05:20;35.93;;;6.07;;
17488;SDS011;8861;52.644;4.734;2023-02-01T02:07:49;31.17;;;6.07;;
17488;SDS011;8861;52.644;4.734;2023-02-01T02:10:18;36.67;;;5.67;;
17488;SDS011;8861;52.644;4.734;2023-02-01T02:12:46;31.70;;;5.80;;
17488;SDS011;8861;52.644;4.734;2023-02-01T02:15:16;37.33;;;7.03;;
17488;SDS011;8861;52.644;4.734;2023-02-01T02:17:44;31.30;;;5.77;;
17488;SDS011;8861;52.644;4.734;2023-02-01T02:20:30;33.43;;;6.10;;
17488;SDS011;8861;52.644;4.734;2023-02-01T02:26:25;29.37;;;5.57;;
17488;SDS011;8861;52.644;4.734;2023-02-01T02:32:28;29.10;;;5.27;;
17488;SDS011;8861;52.644;4.734;2023-02-01T02:35:28;34.77;;;5.47;;
17488;SDS011;8861;52.644;4.734;2023-02-01T02:38:02;34.63;;;5.80;;
17488;SDS011;8861;52.644;4.734;2023-02-01T02:40:36;31.67;;;5.20;;
17488;SDS011;8861;52.644;4.734;2023-02-01T02:43:09;36.50;;;5.80;;
17488;SDS011;8861;52.644;4.734;2023-02-01T02:46:01;23.93;;;4.70;;
17488;SDS011;8861;52.644;4.734;2023-02-01T02:48:51;35.53;;;5.63;;
17488;SDS011;8861;52.644;4.734;2023-02-01T02:51:23;34.37;;;5.60;;
17488;SDS011;8861;52.644;4.734;2023-02-01T02:54:13;41.33;;;5.93;;
17488;SDS011;8861;52.644;4.734;2023-02-01T02:57:01;35.23;;;6.03;;
17488;SDS011;8861;52.644;4.734;2023-02-01T02:59:50;28.90;;;6.03;;
17488;SDS011;8861;52.644;4.734;2023-02-01T03:02:36;27.03;;;5.40;;
17488;SDS011;8861;52.644;4.734;2023-02-01T03:05:21;31.67;;;5.67;;
17488;SDS011;8861;52.644;4.734;2023-02-01T03:08:03;29.70;;;5.57;;
17488;SDS011;8861;52.644;4.734;2023-02-01T03:10:35;39.13;;;5.80;;
17488;SDS011;8861;52.644;4.734;2023-02-01T03:13:08;38.53;;;6.20;;
17488;SDS011;8861;52.644;4.734;2023-02-01T03:15:38;35.60;;;5.70;;
17488;SDS011;8861;52.644;4.734;2023-02-01T03:18:11;37.57;;;6.37;;
17488;SDS011;8861;52.644;4.734;2023-02-01T03:20:43;29.50;;;5.77;;
17488;SDS011;8861;52.644;4.734;2023-02-01T03:23:16;31.80;;;5.90;;
17488;SDS011;8861;52.644;4.734;2023-02-01T03:25:46;35.17;;;6.20;;
17488;SDS011;8861;52.644;4.734;2023-02-01T03:28:16;32.43;;;6.20;;
17488;SDS011;8861;52.644;4.734;2023-02-01T03:30:46;30.47;;;5.63;;
17488;SDS011;8861;52.644;4.734;2023-02-01T03:33:15;33.30;;;5.70;;
17488;SDS011;8861;52.644;4.734;2023-02-01T03:35:48;34.03;;;6.03;;
17488;SDS011;8861;52.644;4.734;2023-02-01T03:38:23;31.17;;;5.70;;
17488;SDS011;8861;52.644;4.734;2023-02-01T03:40:56;29.03;;;6.47;;
17488;SDS011;8861;52.644;4.734;2023-02-01T03:43:29;34.73;;;6.07;;
17488;SDS011;8861;52.644;4.734;2023-02-01T03:46:01;28.60;;;5.67;;
17488;SDS011;8861;52.644;4.734;2023-02-01T03:48:35;28.97;;;5.70;;
17488;SDS011;8861;52.644;4.734;2023-02-01T03:51:04;31.53;;;6.00;;
17488;SDS011;8861;52.644;4.734;2023-02-01T03:53:34;23.83;;;5.53;;
17488;SDS011;8861;52.644;4.734;2023-02-01T03:56:03;33.33;;;6.03;;
17488;SDS011;8861;52.644;4.734;2023-02-01T03:58:31;26.73;;;5.43;;
17488;SDS011;8861;52.644;4.734;2023-02-01T04:00:59;33.53;;;5.83;;
17488;SDS011;8861;52.644;4.734;2023-02-01T04:03:27;29.33;;;6.10;;
17488;SDS011;8861;52.644;4.734;2023-02-01T04:05:54;23.83;;;5.17;;
17488;SDS011;8861;52.644;4.734;2023-02-01T04:08:21;32.70;;;5.60;;
17488;SDS011;8861;52.644;4.734;2023-02-01T04:10:50;28.20;;;5.17;;
17488;SDS011;8861;52.644;4.734;2023-02-01T04:13:17;32.67;;;5.73;;
17488;SDS011;8861;52.644;4.734;2023-02-01T04:15:44;30.83;;;5.43;;
17488;SDS011;8861;52.644;4.734;2023-02-01T04:18:14;31.60;;;5.47;;
17488;SDS011;8861;52.644;4.734;2023-02-01T04:20:42;25.87;;;5.67;;
17488;SDS011;8861;52.644;4.734;2023-02-01T04:23:09;30.00;;;5.73;;
17488;SDS011;8861;52.644;4.734;2023-02-01T04:25:36;27.00;;;5.70;;
17488;SDS011;8861;52.644;4.734;2023-02-01T04:28:05;30.00;;;6.13;;
17488;SDS011;8861;52.644;4.734;2023-02-01T04:30:32;30.60;;;5.50;;
17488;SDS011;8861;52.644;4.734;2023-02-01T04:32:59;28.23;;;6.07;;
17488;SDS011;8861;52.644;4.734;2023-02-01T04:35:28;26.77;;;5.40;;
17488;SDS011;8861;52.644;4.734;2023-02-01T04:37:55;27.90;;;5.53;;
17488;SDS011;8861;52.644;4.734;2023-02-01T04:40:22;26.20;;;4.97;;
17488;SDS011;8861;52.644;4.734;2023-02-01T04:42:49;31.27;;;5.47;;
17488;SDS011;8861;52.644;4.734;2023-02-01T04:45:17;28.00;;;5.47;;
17488;SDS011;8861;52.644;4.734;2023-02-01T04:47:44;33.13;;;6.07;;
17488;SDS011;8861;52.644;4.734;2023-02-01T04:50:13;29.07;;;5.70;;
17488;SDS011;8861;52.644;4.734;2023-02-01T04:52:40;27.87;;;5.70;;
17488;SDS011;8861;52.644;4.734;2023-02-01T04:55:07;33.27;;;6.27;;
17488;SDS011;8861;52.644;4.734;2023-02-01T04:57:34;25.97;;;5.40;;
17488;SDS011;8861;52.644;4.734;2023-02-01T05:00:04;25.70;;;4.73;;
17488;SDS011;8861;52.644;4.734;2023-02-01T05:02:34;27.33;;;5.47;;
17488;SDS011;8861;52.644;4.734;2023-02-01T05:05:01;30.77;;;5.87;;
17488;SDS011;8861;52.644;4.734;2023-02-01T05:07:28;30.90;;;5.70;;
17488;SDS011;8861;52.644;4.734;2023-02-01T05:09:55;25.97;;;4.87;;
17488;SDS011;8861;52.644;4.734;2023-02-01T05:12:22;29.20;;;6.17;;
17488;SDS011;8861;52.644;4.734;2023-02-01T05:15:08;29.57;;;5.67;;
17488;SDS011;8861;52.644;4.734;2023-02-01T05:17:37;30.13;;;5.93;;
17488;SDS011;8861;52.644;4.734;2023-02-01T05:20:05;30.90;;;5.93;;
17488;SDS011;8861;52.644;4.734;2023-02-01T05:22:33;30.90;;;5.90;;
17488;SDS011;8861;52.644;4.734;2023-02-01T05:24:59;36.83;;;6.37;;
17488;SDS011;8861;52.644;4.734;2023-02-01T05:27:28;28.63;;;5.27;;
17488;SDS011;8861;52.644;4.734;2023-02-01T05:29:55;31.73;;;5.90;;
17488;SDS011;8861;52.644;4.734;2023-02-01T05:32:22;29.93;;;5.97;;
17488;SDS011;8861;52.644;4.734;2023-02-01T05:34:50;31.87;;;5.63;;
17488;SDS011;8861;52.644;4.734;2023-02-01T05:37:17;31.97;;;5.63;;
17488;SDS011;8861;52.644;4.734;2023-02-01T05:39:44;34.87;;;6.27;;
17488;SDS011;8861;52.644;4.734;2023-02-01T05:42:11;35.27;;;6.00;;
17488;SDS011;8861;52.644;4.734;2023-02-01T05:44:38;30.20;;;5.47;;
17488;SDS011;8861;52.644;4.734;2023-02-01T05:47:05;28.70;;;5.80;;
17488;SDS011;8861;52.644;4.734;2023-02-01T05:49:32;35.00;;;5.90;;
17488;SDS011;8861;52.644;4.734;2023-02-01T05:52:00;32.07;;;5.60;;
17488;SDS011;8861;52.644;4.734;2023-02-01T05:54:27;32.73;;;5.57;;
17488;SDS011;8861;52.644;4.734;2023-02-01T05:56:54;30.93;;;5.00;;
17488;SDS011;8861;52.644;4.734;2023-02-01T05:59:21;29.73;;;5.87;;
17488;SDS011;8861;52.644;4.734;2023-02-01T06:01:48;27.20;;;5.53;;
17488;SDS011;8861;52.644;4.734;2023-02-01T06:04:15;34.17;;;6.10;;
17488;SDS011;8861;52.644;4.734;2023-02-01T06:06:42;34.07;;;5.43;;
17488;SDS011;8861;52.644;4.734;2023-02-01T06:09:10;25.30;;;5.67;;
17488;SDS011;8861;52.644;4.734;2023-02-01T06:11:38;32.60;;;5.53;;
17488;SDS011;8861;52.644;4.734;2023-02-01T06:14:06;25.80;;;5.60;;
17488;SDS011;8861;52.644;4.734;2023-02-01T06:16:33;27.90;;;5.97;;
17488;SDS011;8861;52.644;4.734;2023-02-01T06:19:00;31.10;;;5.50;;
17488;SDS011;8861;52.644;4.734;2023-02-01T06:21:27;33.87;;;5.87;;
17488;SDS011;8861;52.644;4.734;2023-02-01T06:23:54;29.37;;;5.60;;
17488;SDS011;8861;52.644;4.734;2023-02-01T06:26:24;31.27;;;5.23;;
17488;SDS011;8861;52.644;4.734;2023-02-01T06:28:51;33.17;;;7.00;;
17488;SDS011;8861;52.644;4.734;2023-02-01T06:31:18;30.23;;;5.73;;
17488;SDS011;8861;52.644;4.734;2023-02-01T06:33:45;28.17;;;5.37;;
17488;SDS011;8861;52.644;4.734;2023-02-01T06:36:13;31.97;;;6.03;;
17488;SDS011;8861;52.644;4.734;2023-02-01T06:38:41;34.43;;;5.80;;
17488;SDS011;8861;52.644;4.734;2023-02-01T06:41:08;31.47;;;5.83;;
17488;SDS011;8861;52.644;4.734;2023-02-01T06:43:37;31.50;;;5.20;;
17488;SDS011;8861;52.644;4.734;2023-02-01T06:46:05;28.83;;;4.63;;
17488;SDS011;8861;52.644;4.734;2023-02-01T06:48:33;27.67;;;5.33;;
17488;SDS011;8861;52.644;4.734;2023-02-01T06:51:00;32.37;;;5.23;;
17488;SDS011;8861;52.644;4.734;2023-02-01T06:53:27;29.80;;;5.70;;
17488;SDS011;8861;52.644;4.734;2023-02-01T06:55:55;27.37;;;5.80;;
17488;SDS011;8861;52.644;4.734;2023-02-01T06:58:23;36.53;;;5.70;;
17488;SDS011;8861;52.644;4.734;2023-02-01T07:00:52;29.00;;;5.13;;
17488;SDS011;8861;52.644;4.734;2023-02-01T07:03:19;29.83;;;5.20;;
17488;SDS011;8861;52.644;4.734;2023-02-01T07:05:46;24.37;;;5.10;;
17488;SDS011;8861;52.644;4.734;2023-02-01T07:08:13;34.30;;;5.70;;
17488;SDS011;8861;52.644;4.734;2023-02-01T07:10:40;32.03;;;5.63;;
17488;SDS011;8861;52.644;4.734;2023-02-01T07:13:07;40.43;;;6.27;;
17488;SDS011;8861;52.644;4.734;2023-02-01T07:15:33;27.13;;;4.97;;
17488;SDS011;8861;52.644;4.734;2023-02-01T07:18:02;26.37;;;4.97;;
17488;SDS011;8861;52.644;4.734;2023-02-01T07:20:29;30.40;;;5.47;;
17488;SDS011;8861;52.644;4.734;2023-02-01T07:22:56;34.77;;;5.17;;
17488;SDS011;8861;52.644;4.734;2023-02-01T07:25:23;29.17;;;5.33;;
17488;SDS011;8861;52.644;4.734;2023-02-01T07:27:50;33.43;;;5.77;;
17488;SDS011;8861;52.644;4.734;2023-02-01T07:30:17;32.30;;;5.37;;
17488;SDS011;8861;52.644;4.734;2023-02-01T07:32:44;26.30;;;5.17;;
17488;SDS011;8861;52.644;4.734;2023-02-01T07:35:13;25.80;;;5.07;;
17488;SDS011;8861;52.644;4.734;2023-02-01T07:37:40;34.50;;;5.23;;
17488;SDS011;8861;52.644;4.734;2023-02-01T07:40:07;29.10;;;4.93;;
17488;SDS011;8861;52.644;4.734;2023-02-01T07:42:35;28.53;;;5.43;;
17488;SDS011;8861;52.644;4.734;2023-02-01T07:45:02;28.27;;;5.17;;
17488;SDS011;8861;52.644;4.734;2023-02-01T07:47:30;26.83;;;4.67;;
17488;SDS011;8861;52.644;4.734;2023-02-01T07:49:56;28.67;;;5.10;;
17488;SDS011;8861;52.644;4.734;2023-02-01T07:52:25;25.97;;;5.23;;
17488;SDS011;8861;52.644;4.734;2023-02-01T07:54:54;29.13;;;5.03;;
17488;SDS011;8861;52.644;4.734;2023-02-01T07:57:20;29.30;;;5.00;;
17488;SDS011;8861;52.644;4.734;2023-02-01T07:59:47;35.57;;;5.20;;
17488;SDS011;8861;52.644;4.734;2023-02-01T08:02:32;26.47;;;4.83;;
17488;SDS011;8861;52.644;4.734;2023-02-01T08:04:59;26.90;;;4.80;;
17488;SDS011;8861;52.644;4.734;2023-02-01T08:07:27;30.13;;;5.50;;
17488;SDS011;8861;52.644;4.734;2023-02-01T08:09:54;27.77;;;4.83;;
17488;SDS011;8861;52.644;4.734;2023-02-01T08:12:21;28.03;;;5.67;;
17488;SDS011;8861;52.644;4.734;2023-02-01T08:14:48;24.43;;;4.37;;
17488;SDS011;8861;52.644;4.734;2023-02-01T08:17:15;28.27;;;4.90;;
17488;SDS011;8861;52.644;4.734;2023-02-01T08:19:42;27.53;;;4.50;;
17488;SDS011;8861;52.644;4.734;2023-02-01T08:22:09;32.80;;;5.10;;
17488;SDS011;8861;52.644;4.734;2023-02-01T08:24:37;31.10;;;5.57;;
17488;SDS011;8861;52.644;4.734;2023-02-01T08:27:05;26.43;;;5.30;;
17488;SDS011;8861;52.644;4.734;2023-02-01T08:29:32;25.30;;;4.87;;
17488;SDS011;8861;52.644;4.734;2023-02-01T08:31:59;31.43;;;4.93;;
17488;SDS011;8861;52.644;4.734;2023-02-01T08:34:26;30.43;;;5.00;;
17488;SDS011;8861;52.644;4.734;2023-02-01T08:36:53;24.13;;;5.00;;
17488;SDS011;8861;52.644;4.734;2023-02-01T08:39:23;26.27;;;4.80;;
17488;SDS011;8861;52.644;4.734;2023-02-01T08:41:52;28.90;;;5.23;;
17488;SDS011;8861;52.644;4.734;2023-02-01T08:44:32;28.87;;;5.17;;
17488;SDS011;8861;52.644;4.734;2023-02-01T08:46:59;31.13;;;5.37;;
17488;SDS011;8861;52.644;4.734;2023-02-01T08:49:26;34.57;;;5.53;;
17488;SDS011;8861;52.644;4.734;2023-02-01T08:51:53;22.87;;;4.50;;
17488;SDS011;8861;52.644;4.734;2023-02-01T08:54:20;30.73;;;5.23;;
17488;SDS011;8861;52.644;4.734;2023-02-01T08:56:47;30.80;;;4.93;;
17488;SDS011;8861;52.644;4.734;2023-02-01T08:59:16;27.60;;;5.30;;
17488;SDS011;8861;52.644;4.734;2023-02-01T09:01:43;26.13;;;4.90;;
17488;SDS011;8861;52.644;4.734;2023-02-01T09:04:10;24.00;;;4.73;;
17488;SDS011;8861;52.644;4.734;2023-02-01T09:06:37;24.90;;;4.77;;
17488;SDS011;8861;52.644;4.734;2023-02-01T09:09:06;19.50;;;4.53;;
17488;SDS011;8861;52.644;4.734;2023-02-01T09:11:33;25.30;;;4.77;;
17488;SDS011;8861;52.644;4.734;2023-02-01T09:14:00;28.43;;;5.10;;
17488;SDS011;8861;52.644;4.734;2023-02-01T09:16:28;24.93;;;5.00;;
17488;SDS011;8861;52.644;4.734;2023-02-01T09:18:55;28.17;;;5.27;;
17488;SDS011;8861;52.644;4.734;2023-02-01T09:21:22;28.90;;;5.10;;
17488;SDS011;8861;52.644;4.734;2023-02-01T09:23:50;31.90;;;5.53;;
17488;SDS011;8861;52.644;4.734;2023-02-01T09:26:17;29.80;;;5.43;;
17488;SDS011;8861;52.644;4.734;2023-02-01T09:28:44;38.33;;;6.47;;
17488;SDS011;8861;52.644;4.734;2023-02-01T09:31:11;31.33;;;5.47;;
17488;SDS011;8861;52.644;4.734;2023-02-01T09:33:39;35.40;;;6.50;;
17488;SDS011;8861;52.644;4.734;2023-02-01T09:36:06;25.83;;;5.13;;
17488;SDS011;8861;52.644;4.734;2023-02-01T09:38:33;29.67;;;5.70;;
17488;SDS011;8861;52.644;4.734;2023-02-01T09:41:00;35.40;;;5.87;;
17488;SDS011;8861;52.644;4.734;2023-02-01T09:43:35;38.70;;;6.23;;
17488;SDS011;8861;52.644;4.734;2023-02-01T09:46:10;33.70;;;5.23;;
17488;SDS011;8861;52.644;4.734;2023-02-01T09:48:47;29.63;;;5.50;;
17488;SDS011;8861;52.644;4.734;2023-02-01T09:51:16;30.70;;;5.23;;
17488;SDS011;8861;52.644;4.734;2023-02-01T09:53:51;33.70;;;6.10;;
17488;SDS011;8861;52.644;4.734;2023-02-01T09:56:26;31.27;;;5.23;;
17488;SDS011;8861;52.644;4.734;2023-02-01T09:59:01;30.23;;;6.27;;
17488;SDS011;8861;52.644;4.734;2023-02-01T10:01:47;29.37;;;5.80;;
17488;SDS011;8861;52.644;4.734;2023-02-01T10:04:15;27.63;;;5.73;;
17488;SDS011;8861;52.644;4.734;2023-02-01T10:06:47;34.23;;;6.93;;
17488;SDS011;8861;52.644;4.734;2023-02-01T10:09:32;33.43;;;6.17;;
17488;SDS011;8861;52.644;4.734;2023-02-01T10:12:18;31.87;;;6.37;;
17488;SDS011;8861;52.644;4.734;2023-02-01T10:15:01;32.47;;;5.73;;
17488;SDS011;8861;52.644;4.734;2023-02-01T10:17:43;25.47;;;5.57;;
17488;SDS011;8861;52.644;4.734;2023-02-01T10:20:16;33.90;;;5.60;;
17488;SDS011;8861;52.644;4.734;2023-02-01T10:22:51;29.10;;;5.67;;
17488;SDS011;8861;52.644;4.734;2023-02-01T10:25:28;33.23;;;6.07;;
17488;SDS011;8861;52.644;4.734;2023-02-01T10:28:01;32.73;;;5.67;;
17488;SDS011;8861;52.644;4.734;2023-02-01T10:30:29;27.57;;;5.50;;
17488;SDS011;8861;52.644;4.734;2023-02-01T10:33:02;31.47;;;6.20;;
17488;SDS011;8861;52.644;4.734;2023-02-01T10:35:42;35.10;;;6.30;;
17488;SDS011;8861;52.644;4.734;2023-02-01T10:38:12;27.80;;;5.03;;
17488;SDS011;8861;52.644;4.734;2023-02-01T10:40:50;29.43;;;4.83;;
17488;SDS011;8861;52.644;4.734;2023-02-01T10:43:18;36.23;;;6.17;;
17488;SDS011;8861;52.644;4.734;2023-02-01T10:45:46;32.30;;;5.57;;
17488;SDS011;8861;52.644;4.734;2023-02-01T10:48:13;23.00;;;4.50;;
17488;SDS011;8861;52.644;4.734;2023-02-01T10:50:44;31.17;;;5.37;;
17488;SDS011;8861;52.644;4.734;2023-02-01T10:53:17;30.20;;;5.10;;
17488;SDS011;8861;52.644;4.734;2023-02-01T10:55:48;35.63;;;5.67;;
17488;SDS011;8861;52.644;4.734;2023-02-01T10:58:17;33.60;;;5.23;;
17488;SDS011;8861;52.644;4.734;2023-02-01T11:00:46;27.50;;;5.23;;
17488;SDS011;8861;52.644;4.734;2023-02-01T11:06:13;35.73;;;6.43;;
17488;SDS011;8861;52.644;4.734;2023-02-01T11:08:46;27.47;;;5.37;;
17488;SDS011;8861;52.644;4.734;2023-02-01T11:11:16;30.47;;;5.20;;
17488;SDS011;8861;52.644;4.734;2023-02-01T11:13:43;28.20;;;5.03;;
17488;SDS011;8861;52.644;4.734;2023-02-01T11:16:11;29.07;;;5.37;;
17488;SDS011;8861;52.644;4.734;2023-02-01T11:18:40;31.27;;;5.97;;
17488;SDS011;8861;52.644;4.734;2023-02-01T11:21:08;32.13;;;5.80;;
17488;SDS011;8861;52.644;4.734;2023-02-01T11:23:40;32.73;;;5.73;;
17488;SDS011;8861;52.644;4.734;2023-02-01T11:26:11;31.50;;;5.57;;
17488;SDS011;8861;52.644;4.734;2023-02-01T11:28:42;30.43;;;5.77;;
17488;SDS011;8861;52.644;4.734;2023-02-01T11:31:16;25.07;;;5.17;;
17488;SDS011;8861;52.644;4.734;2023-02-01T11:33:46;22.97;;;4.90;;
17488;SDS011;8861;52.644;4.734;2023-02-01T11:36:16;32.37;;;5.47;;
17488;SDS011;8861;52.644;4.734;2023-02-01T11:38:53;30.27;;;5.47;;
17488;SDS011;8861;52.644;4.734;2023-02-01T11:41:33;32.17;;;4.80;;
17488;SDS011;8861;52.644;4.734;2023-02-01T11:44:01;31.47;;;5.53;;
17488;SDS011;8861;52.644;4.734;2023-02-01T11:46:41;25.47;;;5.07;;
17488;SDS011;8861;52.644;4.734;2023-02-01T11:49:20;31.83;;;5.57;;
17488;SDS011;8861;52.644;4.734;2023-02-01T11:54:47;33.67;;;5.70;;
17488;SDS011;8861;52.644;4.734;2023-02-01T11:57:33;31.67;;;5.70;;
17488;SDS011;8861;52.644;4.734;2023-02-01T12:00:19;26.03;;;5.33;;
17488;SDS011;8861;52.644;4.734;2023-02-01T12:05:55;30.20;;;5.67;;
17488;SDS011;8861;52.644;4.734;2023-02-01T12:08:36;34.93;;;5.23;;
17488;SDS011;8861;52.644;4.734;2023-02-01T12:11:33;31.33;;;6.07;;
17488;SDS011;8861;52.644;4.734;2023-02-01T12:14:13;30.10;;;5.10;;
17488;SDS011;8861;52.644;4.734;2023-02-01T12:16:51;28.43;;;5.47;;
17488;SDS011;8861;52.644;4.734;2023-02-01T12:19:44;32.50;;;5.83;;
17488;SDS011;8861;52.644;4.734;2023-02-01T12:22:28;32.20;;;5.83;;
17488;SDS011;8861;52.644;4.734;2023-02-01T12:25:14;30.40;;;5.80;;
17488;SDS011;8861;52.644;4.734;2023-02-01T12:28:15;30.83;;;5.50;;
17488;SDS011;8861;52.644;4.734;2023-02-01T12:33:46;35.10;;;5.80;;
17488;SDS011;8861;52.644;4.734;2023-02-01T12:36:25;23.03;;;4.80;;
17488;SDS011;8861;52.644;4.734;2023-02-01T12:39:00;28.57;;;5.90;;
17488;SDS011;8861;52.644;4.734;2023-02-01T12:41:49;32.37;;;6.03;;
17488;SDS011;8861;52.644;4.734;2023-02-01T12:44:28;31.10;;;5.87;;
17488;SDS011;8861;52.644;4.734;2023-02-01T12:47:12;33.53;;;6.03;;
17488;SDS011;8861;52.644;4.734;2023-02-01T12:49:47;27.10;;;5.50;;
17488;SDS011;8861;52.644;4.734;2023-02-01T12:52:20;26.90;;;5.30;;
17488;SDS011;8861;52.644;4.734;2023-02-01T12:54:55;24.53;;;5.53;;
17488;SDS011;8861;52.644;4.734;2023-02-01T12:57:27;32.67;;;6.07;;
17488;SDS011;8861;52.644;4.734;2023-02-01T13:00:02;31.93;;;5.50;;
17488;SDS011;8861;52.644;4.734;2023-02-01T13:02:35;32.53;;;6.13;;
17488;SDS011;8861;52.644;4.734;2023-02-01T13:05:11;31.40;;;5.80;;
17488;SDS011;8861;52.644;4.734;2023-02-01T13:07:43;28.80;;;6.00;;
17488;SDS011;8861;52.644;4.734;2023-02-01T13:10:15;29.97;;;5.47;;
17488;SDS011;8861;52.644;4.734;2023-02-01T13:12:47;31.37;;;5.63;;
17488;SDS011;8861;52.644;4.734;2023-02-01T13:15:21;28.90;;;5.40;;
17488;SDS011;8861;52.644;4.734;2023-02-01T13:17:52;31.73;;;5.33;;
17488;SDS011;8861;52.644;4.734;2023-02-01T13:20:25;34.47;;;5.87;;
17488;SDS011;8861;52.644;4.734;2023-02-01T13:22:58;32.53;;;5.30;;
17488;SDS011;8861;52.644;4.734;2023-02-01T13:25:29;34.83;;;5.83;;
17488;SDS011;8861;52.644;4.734;2023-02-01T13:28:02;28.93;;;5.33;;
17488;SDS011;8861;52.644;4.734;2023-02-01T13:30:37;35.80;;;6.33;;
17488;SDS011;8861;52.644;4.734;2023-02-01T13:33:26;26.27;;;5.93;;
17488;SDS011;8861;52.644;4.734;2023-02-01T13:36:20;34.30;;;5.53;;
17488;SDS011;8861;52.644;4.734;2023-02-01T13:42:15;30.80;;;5.90;;
17488;SDS011;8861;52.644;4.734;2023-02-01T13:44:45;36.53;;;6.00;;
17488;SDS011;8861;52.644;4.734;2023-02-01T13:47:22;31.57;;;5.83;;
17488;SDS011;8861;52.644;4.734;2023-02-01T13:49:51;34.53;;;6.43;;
17488;SDS011;8861;52.644;4.734;2023-02-01T13:52:28;43.53;;;7.30;;
17488;SDS011;8861;52.644;4.734;2023-02-01T13:55:15;30.57;;;5.83;;
17488;SDS011;8861;52.644;4.734;2023-02-01T13:57:59;37.50;;;6.10;;
17488;SDS011;8861;52.644;4.734;2023-02-01T14:00:41;31.47;;;5.67;;
17488;SDS011;8861;52.644;4.734;2023-02-01T14:03:17;35.77;;;5.87;;
17488;SDS011;8861;52.644;4.734;2023-02-01T14:06:02;34.00;;;5.30;;
17488;SDS011;8861;52.644;4.734;2023-02-01T14:08:43;28.80;;;6.03;;
17488;SDS011;8861;52.644;4.734;2023-02-01T14:11:31;28.63;;;5.70;;
17488;SDS011;8861;52.644;4.734;2023-02-01T14:26:08;20.73;;;3.70;;
17488;SDS011;8861;52.644;4.734;2023-02-01T14:28:42;11.13;;;2.20;;
17488;SDS011;8861;52.644;4.734;2023-02-01T14:31:28;9.50;;;2.50;;
17488;SDS011;8861;52.644;4.734;2023-02-01T14:34:12;7.60;;;1.90;;
17488;SDS011;8861;52.644;4.734;2023-02-01T14:36:43;11.23;;;2.60;;
17488;SDS011;8861;52.644;4.734;2023-02-01T14:39:26;14.93;;;3.40;;
17488;SDS011;8861;52.644;4.734;2023-02-01T14:42:05;11.13;;;2.50;;
17488;SDS011;8861;52.644;4.734;2023-02-01T14:44:46;12.60;;;2.97;;
17488;SDS011;8861;52.644;4.734;2023-02-01T14:50:02;25.63;;;4.53;;
17488;SDS011;8861;52.644;4.734;2023-02-01T14:52:44;38.97;;;6.80;;
17488;SDS011;8861;52.644;4.734;2023-02-01T14:55:15;37.57;;;6.60;;
17488;SDS011;8861;52.644;4.734;2023-02-01T14:57:46;40.97;;;7.20;;
17488;SDS011;8861;52.644;4.734;2023-02-01T15:00:20;42.37;;;7.80;;
17488;SDS011;8861;52.644;4.734;2023-02-01T15:02:50;41.50;;;7.07;;
17488;SDS011;8861;52.644;4.734;2023-02-01T15:05:23;40.27;;;7.07;;
17488;SDS011;8861;52.644;4.734;2023-02-01T15:08:02;46.43;;;8.10;;
17488;SDS011;8861;52.644;4.734;2023-02-01T15:10:39;48.03;;;7.33;;
17488;SDS011;8861;52.644;4.734;2023-02-01T15:13:13;41.53;;;7.03;;
17488;SDS011;8861;52.644;4.734;2023-02-01T15:15:59;41.97;;;7.33;;
17488;SDS011;8861;52.644;4.734;2023-02-01T15:18:27;39.47;;;6.90;;
17488;SDS011;8861;52.644;4.734;2023-02-01T15:20:57;41.43;;;7.17;;
17488;SDS011;8861;52.644;4.734;2023-02-01T15:23:25;44.03;;;6.50;;
17488;SDS011;8861;52.644;4.734;2023-02-01T15:25:54;40.20;;;6.53;;
17488;SDS011;8861;52.644;4.734;2023-02-01T15:28:21;34.93;;;6.20;;
17488;SDS011;8861;52.644;4.734;2023-02-01T15:30:52;38.60;;;6.83;;
17488;SDS011;8861;52.644;4.734;2023-02-01T15:33:21;33.53;;;6.03;;
17488;SDS011;8861;52.644;4.734;2023-02-01T15:35:49;39.50;;;6.87;;
17488;SDS011;8861;52.644;4.734;2023-02-01T15:41:06;34.43;;;6.77;;
17488;SDS011;8861;52.644;4.734;2023-02-01T15:43:40;43.33;;;7.20;;
17488;SDS011;8861;52.644;4.734;2023-02-01T15:46:09;29.23;;;5.83;;
17488;SDS011;8861;52.644;4.734;2023-02-01T15:48:42;20.50;;;4.13;;
17488;SDS011;8861;52.644;4.734;2023-02-01T15:51:15;13.33;;;3.00;;
17488;SDS011;8861;52.644;4.734;2023-02-01T15:53:48;13.20;;;2.83;;
17488;SDS011;8861;52.644;4.734;2023-02-01T15:56:22;16.20;;;3.43;;